createdAt,value
2023-04-14T00:00:33.969Z,60.66
2023-04-14T00:05:53.682Z,68.04
2023-04-14T00:10:56.932Z,64.14
2023-04-14T00:22:25.860Z,55.28
2023-04-14T00:27:29.759Z,56.77
2023-04-14T00:32:33.389Z,57.83
2023-04-14T00:37:36.774Z,59.66
2023-04-14T00:42:47.654Z,60.55
2023-04-14T00:48:33.906Z,67.46
2023-04-14T00:53:37.669Z,62.99
2023-04-14T00:58:42.288Z,56.45
2023-04-14T01:03:45.822Z,54.39
2023-04-14T01:08:50.823Z,56.07
2023-04-14T01:13:57.405Z,57.15
2023-04-14T01:19:23.613Z,57.65
2023-04-14T01:24:45.099Z,58.94
2023-04-14T01:30:19.225Z,59.37
2023-04-14T01:35:42.688Z,60.85
2023-04-14T01:40:51.485Z,68.03
2023-04-14T01:45:59.368Z,63.62
2023-04-14T01:51:06.137Z,55.79
2023-04-14T01:56:13.282Z,55.11
2023-04-14T02:01:18.203Z,57.03
2023-04-14T02:06:23.250Z,57.89
2023-04-14T02:11:28.447Z,59.47
2023-04-14T02:16:34.101Z,60.81
2023-04-14T02:21:38.256Z,68.27
2023-04-14T02:26:48.068Z,65.36
2023-04-14T02:32:01.081Z,56.82
2023-04-14T02:37:15.613Z,56.25
2023-04-14T02:42:22.823Z,57.70
2023-04-14T02:47:33.298Z,59.00
2023-04-14T02:52:38.156Z,60.09
2023-04-14T02:57:41.967Z,61.54
2023-04-14T03:02:46.713Z,68.29
2023-04-14T03:07:53.214Z,64.46
2023-04-14T03:12:58.975Z,56.35
2023-04-14T03:18:04.263Z,55.72
2023-04-14T03:23:12.111Z,57.24
2023-04-14T03:28:23.188Z,58.25
2023-04-14T03:33:29.272Z,59.33
2023-04-14T03:38:34.826Z,60.38
2023-04-14T03:43:38.529Z,67.19
2023-04-14T03:48:45.952Z,65.20
2023-04-14T03:53:52.155Z,56.41
2023-04-14T03:58:57.426Z,55.86
2023-04-14T04:04:03.212Z,57.12
2023-04-14T04:09:09.549Z,58.24
2023-04-14T04:14:19.112Z,59.41
2023-04-14T04:19:25.456Z,60.87
2023-04-14T04:24:33.764Z,67.27
2023-04-14T04:29:37.852Z,64.26
2023-04-14T04:34:42.525Z,56.38
2023-04-14T04:39:48.219Z,55.77
2023-04-14T04:51:06.894Z,58.02
2023-04-14T04:56:10.162Z,59.42
2023-04-14T05:01:15.135Z,60.58
2023-04-14T05:06:18.402Z,67.37
2023-04-14T05:11:22.199Z,63.76
2023-04-14T05:16:25.900Z,55.85
2023-04-14T05:21:29.223Z,55.36
2023-04-14T05:26:52.027Z,57.03
2023-04-14T05:31:56.212Z,58.01
2023-04-14T05:36:59.412Z,59.26
2023-04-14T05:42:03.021Z,60.24
2023-04-14T05:47:06.391Z,66.45
2023-04-14T05:52:09.736Z,63.10
2023-04-14T05:57:12.981Z,55.73
2023-04-14T06:02:16.359Z,55.44
2023-04-14T06:07:19.933Z,57.47
2023-04-14T06:12:23.406Z,58.15
2023-04-14T06:17:26.961Z,59.70
2023-04-14T06:22:30.441Z,62.02
2023-04-14T06:27:33.685Z,66.55
2023-04-14T06:32:37.135Z,59.58
2023-04-14T06:37:40.459Z,53.31
2023-04-14T06:42:43.988Z,54.58
2023-04-14T06:47:47.386Z,57.20
2023-04-14T06:52:50.696Z,58.22
2023-04-14T06:57:54.628Z,58.64
2023-04-14T07:02:58.137Z,59.33
2023-04-14T07:08:01.906Z,59.50
2023-04-14T07:13:05.221Z,60.38
2023-04-14T07:18:08.673Z,61.08
2023-04-14T07:23:12.056Z,66.28
2023-04-14T07:28:16.083Z,62.23
2023-04-14T07:33:55.667Z,54.51
2023-04-14T07:38:59.009Z,53.53
2023-04-14T07:44:03.430Z,54.35
2023-04-14T07:49:06.934Z,54.18
2023-04-14T07:54:11.449Z,55.05
2023-04-14T07:59:15.237Z,55.70
2023-04-14T08:04:18.693Z,56.44
2023-04-14T08:09:22.066Z,57.19
2023-04-14T08:14:25.562Z,57.30
2023-04-14T08:19:29.081Z,57.66
2023-04-14T08:24:32.366Z,57.63
2023-04-14T08:29:38.762Z,57.77
2023-04-14T08:35:37.271Z,57.59
2023-04-14T08:40:09.889Z,57.94
2023-04-14T08:45:13.556Z,58.13
2023-04-14T08:50:21.618Z,57.92
2023-04-14T08:55:26.070Z,57.75
2023-04-14T09:00:29.681Z,57.06
2023-04-14T09:05:33.397Z,56.88
2023-04-14T09:10:38.366Z,56.44
2023-04-14T09:15:42.389Z,56.17
2023-04-14T09:20:48.081Z,54.80
2023-04-14T09:26:13.726Z,53.08
2023-04-14T09:31:18.637Z,52.16
2023-04-14T09:37:07.075Z,51.44
2023-04-14T09:42:10.114Z,51.36
2023-04-14T09:47:16.355Z,48.54
2023-04-14T09:52:19.353Z,46.82
2023-04-14T09:57:26.606Z,46.59
2023-04-14T10:02:30.943Z,47.77
2023-04-14T10:07:40.866Z,44.78
2023-04-14T10:12:45.375Z,44.21
2023-04-14T10:17:54.754Z,43.94
2023-04-14T10:22:58.100Z,44.22
2023-04-14T10:28:01.399Z,43.36
2023-04-14T10:33:04.648Z,42.46
2023-04-14T10:38:07.984Z,43.02
2023-04-14T10:43:13.972Z,42.33
2023-04-14T10:48:17.683Z,41.87
2023-04-14T10:53:20.860Z,42.81
2023-04-14T10:58:29.490Z,44.59
2023-04-14T11:03:43.869Z,42.44
2023-04-14T11:08:50.427Z,43.76
2023-04-14T11:14:13.286Z,41.20
2023-04-14T11:19:16.806Z,41.06
2023-04-14T11:24:22.323Z,40.95
2023-04-14T11:29:25.612Z,39.92
2023-04-14T11:34:28.954Z,40.55
2023-04-14T11:39:32.493Z,40.82
2023-04-14T11:44:36.268Z,40.74
2023-04-14T11:49:39.971Z,41.07
2023-04-14T11:54:43.217Z,41.69
2023-04-14T11:59:47.843Z,40.98
2023-04-14T12:04:51.862Z,41.49
2023-04-14T12:09:55.353Z,42.00
2023-04-14T12:14:59.225Z,41.89
2023-04-14T12:20:03.242Z,41.94
2023-04-14T12:25:12.739Z,42.93
2023-04-14T12:30:21.603Z,42.63
2023-04-14T12:35:24.948Z,43.26
2023-04-14T12:40:38.868Z,43.03
2023-04-14T12:45:42.957Z,42.50
2023-04-14T12:50:46.467Z,42.85
2023-04-14T12:56:10.591Z,42.57
2023-04-14T13:01:19.978Z,41.95
2023-04-14T13:06:27.610Z,42.18
2023-04-14T13:11:36.044Z,42.60
2023-04-14T13:16:39.771Z,42.08
2023-04-14T13:21:44.562Z,42.08
2023-04-14T13:26:49.514Z,41.83
2023-04-14T13:31:53.304Z,42.20
2023-04-14T13:36:57.366Z,41.81
2023-04-14T13:42:01.319Z,42.39
2023-04-14T13:47:06.418Z,42.41
2023-04-14T13:52:13.145Z,42.93
2023-04-14T13:57:17.344Z,42.86
2023-04-14T14:02:21.923Z,43.30
2023-04-14T14:07:27.001Z,43.48
2023-04-14T14:12:32.639Z,43.39
2023-04-14T14:17:37.592Z,43.88
2023-04-14T14:22:42.088Z,43.79
2023-04-14T14:27:46.211Z,43.34
2023-04-14T14:32:51.009Z,43.61
2023-04-14T14:37:54.876Z,43.44
2023-04-14T14:43:01.615Z,43.70
2023-04-14T14:48:06.120Z,44.09
2023-04-14T14:53:10.066Z,44.26
2023-04-14T14:58:13.259Z,44.41
2023-04-14T15:03:17.228Z,44.30
2023-04-14T15:08:20.341Z,44.01
2023-04-14T15:13:23.989Z,44.14
2023-04-14T15:18:27.075Z,43.90
2023-04-14T15:23:33.054Z,43.94
2023-04-14T15:28:36.087Z,44.13
2023-04-14T15:33:39.143Z,44.15
2023-04-14T15:38:42.254Z,44.09
2023-04-14T15:43:45.898Z,44.13
2023-04-14T15:48:48.880Z,44.24
2023-04-14T15:53:52.498Z,44.46
2023-04-14T15:58:55.776Z,44.43
2023-04-14T16:03:59.097Z,44.89
2023-04-14T16:09:03.571Z,44.88
2023-04-14T16:14:07.227Z,44.97
2023-04-14T16:19:10.532Z,45.17
2023-04-14T16:24:15.109Z,45.35
2023-04-14T16:29:18.378Z,45.75
2023-04-14T16:34:21.961Z,45.97
2023-04-14T16:39:25.279Z,46.20
2023-04-14T16:44:28.472Z,46.42
2023-04-14T16:49:32.061Z,46.62
2023-04-14T16:54:36.912Z,47.04
2023-04-14T16:59:41.696Z,47.32
2023-04-14T17:04:45.350Z,47.82
2023-04-14T17:09:49.929Z,48.14
2023-04-14T17:14:53.276Z,48.53
2023-04-14T17:19:57.004Z,48.78
2023-04-14T17:25:00.616Z,49.04
2023-04-14T17:30:05.189Z,49.72
2023-04-14T17:35:09.592Z,50.28
2023-04-14T17:40:13.882Z,50.39
2023-04-14T17:45:23.014Z,50.59
2023-04-14T17:50:26.338Z,51.24
2023-04-14T17:55:29.504Z,51.72
2023-04-14T18:00:32.782Z,52.11
2023-04-14T18:05:36.610Z,52.28
2023-04-14T18:10:39.825Z,52.59
2023-04-14T18:15:43.247Z,53.20
2023-04-14T18:20:50.351Z,53.65
2023-04-14T18:31:10.013Z,54.87
2023-04-14T18:36:14.640Z,55.80
2023-04-14T18:41:18.055Z,55.10
2023-04-14T18:46:21.838Z,55.84
2023-04-14T18:51:32.849Z,56.05
2023-04-14T18:56:36.667Z,56.34
2023-04-14T19:01:40.720Z,56.50
2023-04-14T19:06:44.099Z,56.64
2023-04-14T19:11:48.478Z,56.78
2023-04-14T19:16:51.889Z,56.42
2023-04-14T19:21:55.431Z,56.98
2023-04-14T19:26:58.979Z,56.85
2023-04-14T19:32:02.730Z,57.26
2023-04-14T19:37:06.099Z,56.95
2023-04-14T19:42:09.707Z,57.22
2023-04-14T19:47:13.004Z,57.04
2023-04-14T19:52:16.461Z,57.26
2023-04-14T19:57:22.142Z,57.32
2023-04-14T20:02:30.415Z,57.45
2023-04-14T20:07:34.244Z,57.47
2023-04-14T20:12:37.715Z,57.75
2023-04-14T20:17:41.008Z,57.82
2023-04-14T20:22:45.658Z,58.01
2023-04-14T20:27:49.661Z,57.55
2023-04-14T20:32:53.379Z,57.73
2023-04-14T20:42:55.800Z,58.86
2023-04-14T20:47:59.249Z,58.43
2023-04-14T20:53:02.748Z,58.50
2023-04-14T20:58:06.063Z,59.17
2023-04-14T21:03:10.026Z,59.64
2023-04-14T21:08:13.869Z,60.36
2023-04-14T21:15:26.637Z,60.99
2023-04-14T21:18:42.154Z,61.54
2023-04-14T21:23:45.599Z,61.49
2023-04-14T21:28:48.827Z,61.84
2023-04-14T21:33:52.118Z,61.71
2023-04-14T21:38:55.455Z,63.63
2023-04-14T21:43:59.264Z,63.88
2023-04-14T21:49:03.905Z,55.81
2023-04-14T21:54:08.400Z,55.46
2023-04-14T21:59:12.020Z,57.25
2023-04-14T22:04:25.190Z,58.88
2023-04-14T22:09:39.686Z,59.72
2023-04-14T22:14:42.908Z,59.84
2023-04-14T22:19:46.513Z,60.81
2023-04-14T22:24:51.771Z,61.09
2023-04-14T22:29:55.043Z,65.69
2023-04-14T22:34:58.706Z,61.07
2023-04-14T22:40:03.423Z,53.72
2023-04-14T22:45:07.747Z,54.37
2023-04-14T22:50:11.258Z,55.40
2023-04-14T22:55:14.486Z,56.48
2023-04-14T23:00:17.849Z,57.08
2023-04-14T23:05:21.363Z,57.50
2023-04-14T23:10:24.898Z,58.05
2023-04-14T23:15:28.587Z,58.64
2023-04-14T23:20:32.194Z,59.22
2023-04-14T23:25:35.437Z,59.45
2023-04-14T23:30:38.734Z,60.21
2023-04-14T23:35:42.014Z,60.73
2023-04-14T23:40:45.596Z,61.35
2023-04-14T23:45:49.146Z,61.67
2023-04-14T23:50:58.990Z,61.61
2023-04-14T23:56:07.129Z,61.12
